Time;durP1;ratioP1;P1;durP2;ratioP2;P2;SDS_P1;SDS_P2;PMS_P1;PMS_P2;Temp;Humidity;BMP_temperature;BMP_pressure;BME280_temperature;BME280_humidity;BME280_pressure;Samples;Min_cycle;Max_cycle;Signal;HPM_P1;HPM_P2
2022/08/27 00:00:16;;;;;;;7.22;3.17;;;20.70;69.20;;;;;;5059831;28;20044;-61
2022/08/27 00:02:42;;;;;;;4.57;3.30;;;20.70;69.80;;;;;;5059891;28;20472;-63
2022/08/27 00:05:13;;;;;;;4.28;3.05;;;20.60;70.00;;;;;;5057485;28;20038;-62
2022/08/27 00:07:39;;;;;;;8.07;3.78;;;20.60;70.30;;;;;;5030445;28;20444;-61
2022/08/27 00:10:07;;;;;;;7.43;3.88;;;20.60;70.10;;;;;;5057518;28;20033;-62
2022/08/27 00:12:33;;;;;;;5.40;3.60;;;20.70;70.10;;;;;;5055585;28;20487;-62
2022/08/27 00:15:00;;;;;;;4.63;3.38;;;20.60;70.00;;;;;;5058581;28;20029;-63
2022/08/27 00:17:26;;;;;;;8.25;3.70;;;20.60;70.40;;;;;;5048453;28;20048;-63
2022/08/27 00:19:52;;;;;;;6.45;3.50;;;20.60;70.50;;;;;;5061872;28;20045;-61
2022/08/27 00:22:17;;;;;;;7.25;3.58;;;20.50;70.10;;;;;;5051847;28;20463;-64
2022/08/27 00:24:43;;;;;;;8.15;3.63;;;20.60;70.20;;;;;;5057933;28;20391;-62
2022/08/27 00:27:09;;;;;;;7.65;3.13;;;20.60;70.30;;;;;;5061269;28;20081;-62
2022/08/27 00:29:34;;;;;;;4.45;3.13;;;20.50;70.30;;;;;;5053239;28;20045;-62
2022/08/27 00:32:00;;;;;;;5.82;3.58;;;20.50;70.30;;;;;;5052528;28;20056;-63
2022/08/27 00:34:26;;;;;;;6.05;3.75;;;20.50;70.70;;;;;;5055993;28;20369;-61
2022/08/27 00:36:52;;;;;;;6.38;3.67;;;20.40;70.60;;;;;;5064653;28;20392;-63
2022/08/27 00:39:19;;;;;;;4.47;3.53;;;20.40;70.70;;;;;;5042379;28;20057;-62
2022/08/27 00:41:45;;;;;;;6.78;3.88;;;20.40;70.90;;;;;;5062303;28;20108;-64
2022/08/27 00:44:12;;;;;;;5.70;3.78;;;20.40;70.80;;;;;;5048544;28;20037;-62
2022/08/27 00:46:49;;;;;;;6.00;3.00;;;20.40;70.90;;;;;;5064464;28;20026;-62
2022/08/27 00:49:20;;;;;;;3.97;2.80;;;20.40;71.40;;;;;;5047344;28;20032;-63
2022/08/27 00:51:56;;;;;;;4.80;3.30;;;20.50;71.00;;;;;;5053523;28;20048;-62
2022/08/27 00:54:22;;;;;;;6.05;3.70;;;20.50;71.30;;;;;;5046647;28;20052;-62
2022/08/27 00:56:48;;;;;;;6.57;3.53;;;20.50;70.90;;;;;;5053320;28;20025;-61
2022/08/27 00:59:16;;;;;;;5.10;3.53;;;20.50;70.70;;;;;;5058382;28;20032;-64
2022/08/27 01:04:31;;;;;;;5.65;3.28;;;20.50;70.90;;;;;;5059428;28;20112;-61
2022/08/27 01:06:58;;;;;;;5.10;3.30;;;20.50;70.80;;;;;;5063317;28;20036;-62
2022/08/27 01:09:24;;;;;;;5.93;3.80;;;20.50;70.70;;;;;;5043116;28;20029;-61
2022/08/27 01:11:51;;;;;;;7.18;3.58;;;20.50;70.90;;;;;;5057265;28;20502;-63
2022/08/27 01:14:17;;;;;;;7.63;3.80;;;20.60;70.70;;;;;;5045606;28;20033;-64
2022/08/27 01:16:50;;;;;;;4.93;3.58;;;20.50;70.70;;;;;;5051874;28;20032;-61
2022/08/27 01:19:55;;;;;;;10.93;4.00;;;20.60;71.20;;;;;;5045384;28;20072;-61
2022/08/27 01:22:49;;;;;;;5.78;3.75;;;20.60;71.40;;;;;;5051685;28;20033;-63
2022/08/27 01:25:17;;;;;;;7.95;3.30;;;20.60;71.50;;;;;;5034122;28;20053;-63
2022/08/27 01:27:44;;;;;;;6.35;3.72;;;20.60;70.80;;;;;;5055838;28;20040;-62
2022/08/27 01:30:13;;;;;;;5.30;3.30;;;20.60;70.80;;;;;;5064458;28;20035;-63
2022/08/27 01:32:38;;;;;;;7.07;3.65;;;20.60;71.00;;;;;;5055628;28;20017;-62
2022/08/27 01:35:07;;;;;;;5.93;3.42;;;20.60;70.80;;;;;;5063873;28;20029;-62
2022/08/27 01:37:33;;;;;;;7.82;3.78;;;20.60;71.00;;;;;;5048889;28;20025;-62
2022/08/27 01:40:00;;;;;;;7.90;3.88;;;20.60;70.80;;;;;;5062884;28;20090;-62
2022/08/27 01:42:37;;;;;;;4.55;3.40;;;20.60;71.00;;;;;;5062983;28;20021;-62
2022/08/27 01:45:13;;;;;;;8.68;3.53;;;20.60;71.20;;;;;;5039779;28;20025;-62
2022/08/27 01:47:40;;;;;;;7.20;3.22;;;20.60;71.00;;;;;;5030650;28;20109;-62
2022/08/27 01:50:13;;;;;;;8.00;3.85;;;20.70;70.90;;;;;;5051973;28;20029;-62
2022/08/27 01:52:39;;;;;;;8.00;3.08;;;20.70;71.30;;;;;;5061740;28;20105;-61
2022/08/27 01:55:07;;;;;;;9.18;3.60;;;20.70;70.90;;;;;;5057331;28;20495;-61
2022/08/27 01:57:34;;;;;;;5.70;4.00;;;20.70;70.90;;;;;;5058807;28;20088;-62
2022/08/27 02:00:01;;;;;;;5.35;3.70;;;20.70;70.90;;;;;;5055458;28;20381;-63
2022/08/27 02:02:27;;;;;;;6.25;4.25;;;20.70;70.90;;;;;;5054535;28;20079;-62
2022/08/27 02:04:53;;;;;;;7.97;3.95;;;20.70;70.90;;;;;;5060424;28;20037;-62
2022/08/27 02:07:18;;;;;;;6.30;3.75;;;20.70;70.80;;;;;;5063183;28;20095;-62
2022/08/27 02:09:44;;;;;;;7.57;3.85;;;20.70;70.90;;;;;;5057506;28;20022;-63
2022/08/27 02:12:10;;;;;;;5.50;3.70;;;20.70;70.70;;;;;;5041255;28;20056;-62
2022/08/27 02:14:36;;;;;;;7.75;3.78;;;20.70;71.00;;;;;;5043495;28;20051;-62
2022/08/27 02:17:01;;;;;;;8.43;3.63;;;20.70;70.90;;;;;;5058229;28;20029;-61
2022/08/27 02:19:27;;;;;;;12.02;3.95;;;20.60;70.80;;;;;;5028247;28;20088;-62
2022/08/27 02:21:53;;;;;;;8.02;4.00;;;20.70;70.90;;;;;;5060286;28;20032;-63
2022/08/27 02:24:19;;;;;;;7.65;4.68;;;20.70;70.90;;;;;;5046114;28;20036;-61
2022/08/27 02:26:45;;;;;;;9.68;4.50;;;20.70;71.10;;;;;;5080152;28;20022;-61
2022/08/27 02:29:10;;;;;;;9.20;4.80;;;20.60;70.80;;;;;;5045282;28;20462;-60
2022/08/27 02:31:36;;;;;;;10.13;6.72;;;20.70;71.00;;;;;;5056859;28;20029;-60
2022/08/27 02:34:03;;;;;;;9.30;5.68;;;20.60;71.30;;;;;;5062443;28;20049;-60
2022/08/27 02:36:28;;;;;;;12.95;5.80;;;20.60;71.20;;;;;;5058514;28;20033;-61
2022/08/27 02:38:55;;;;;;;9.77;5.43;;;20.60;71.20;;;;;;5047100;28;20029;-61
2022/08/27 02:41:21;;;;;;;10.50;5.40;;;20.60;71.20;;;;;;5059530;28;20072;-61
2022/08/27 02:43:47;;;;;;;9.05;5.65;;;20.60;71.50;;;;;;5054281;28;20026;-61
2022/08/27 02:46:13;;;;;;;7.88;5.72;;;20.60;71.40;;;;;;5062134;28;20037;-61
2022/08/27 02:48:40;;;;;;;7.40;5.15;;;20.60;71.80;;;;;;5057849;28;20025;-60
2022/08/27 02:51:06;;;;;;;8.98;5.57;;;20.60;71.80;;;;;;5007816;28;20033;-62
2022/08/27 02:53:34;;;;;;;11.70;6.40;;;20.60;71.70;;;;;;5056599;28;20029;-62
2022/08/27 02:55:59;;;;;;;10.45;6.53;;;20.60;71.90;;;;;;5061165;28;20034;-63
2022/08/27 02:58:25;;;;;;;16.33;7.00;;;20.60;72.20;;;;;;5048098;28;20041;-63
2022/08/27 03:00:51;;;;;;;10.68;6.68;;;20.60;72.10;;;;;;5065801;28;20068;-61
2022/08/27 03:03:17;;;;;;;14.00;7.15;;;20.60;72.10;;;;;;5063015;28;20036;-62
2022/08/27 03:05:42;;;;;;;12.95;7.00;;;20.60;72.10;;;;;;5064320;28;20395;-62
2022/08/27 03:08:08;;;;;;;10.82;6.20;;;20.50;71.90;;;;;;5049399;28;20025;-64
2022/08/27 03:10:34;;;;;;;9.38;6.35;;;20.50;72.30;;;;;;5050523;28;20056;-61
2022/08/27 03:13:00;;;;;;;9.98;6.50;;;20.50;72.20;;;;;;5049747;28;20030;-62
2022/08/27 03:15:26;;;;;;;11.45;7.85;;;20.50;72.10;;;;;;5048492;28;20034;-61
2022/08/27 03:20:41;;;;;;;13.10;8.18;;;20.60;72.20;;;;;;5060052;28;20044;-61
2022/08/27 03:23:10;;;;;;;13.27;8.73;;;20.60;72.40;;;;;;5037376;28;20028;-62
2022/08/27 03:25:37;;;;;;;20.35;9.60;;;20.60;72.40;;;;;;5038255;28;20029;-62
2022/08/27 03:28:03;;;;;;;13.98;9.18;;;20.60;72.30;;;;;;5050365;28;20033;-63
2022/08/27 03:30:29;;;;;;;12.40;8.43;;;20.60;72.20;;;;;;5064236;28;20033;-62
2022/08/27 03:32:54;;;;;;;12.98;8.88;;;20.60;72.30;;;;;;5060430;28;20037;-61
2022/08/27 03:35:21;;;;;;;15.45;9.80;;;20.60;72.30;;;;;;5063252;28;20037;-62
2022/08/27 03:37:47;;;;;;;15.02;10.52;;;20.50;72.20;;;;;;5048252;28;20435;-62
2022/08/27 03:40:13;;;;;;;15.98;9.93;;;20.50;72.30;;;;;;5063737;28;20048;-61
2022/08/27 03:42:40;;;;;;;15.30;10.77;;;20.50;72.30;;;;;;5054969;28;20048;-62
2022/08/27 03:45:07;;;;;;;15.70;10.30;;;20.50;72.40;;;;;;5041189;28;20058;-62
2022/08/27 03:47:33;;;;;;;16.58;10.68;;;20.50;72.40;;;;;;5052730;28;20028;-62
2022/08/27 03:49:59;;;;;;;16.23;10.35;;;20.50;72.50;;;;;;5055047;28;20036;-62
2022/08/27 03:52:26;;;;;;;18.65;10.38;;;20.50;72.50;;;;;;5052427;28;20026;-62
2022/08/27 03:54:52;;;;;;;14.40;8.85;;;20.50;72.50;;;;;;5061416;28;20108;-61
2022/08/27 03:57:17;;;;;;;16.65;9.63;;;20.50;72.50;;;;;;5056767;28;20029;-62
2022/08/27 03:59:43;;;;;;;14.30;9.45;;;20.50;72.50;;;;;;5053919;28;20431;-62
2022/08/27 04:02:09;;;;;;;14.73;9.38;;;20.50;72.50;;;;;;5047188;28;20061;-61
2022/08/27 04:04:35;;;;;;;13.88;9.35;;;20.50;72.60;;;;;;5047744;28;20086;-62
2022/08/27 04:07:01;;;;;;;18.45;11.60;;;20.40;72.40;;;;;;5049756;28;20037;-61
2022/08/27 04:09:27;;;;;;;16.23;10.38;;;20.40;72.40;;;;;;5055357;28;20039;-61
2022/08/27 04:11:52;;;;;;;17.52;10.35;;;20.50;72.50;;;;;;5057587;28;20484;-60
2022/08/27 04:14:18;;;;;;;14.60;10.70;;;20.50;72.50;;;;;;5054749;28;20084;-60
2022/08/27 04:16:44;;;;;;;17.70;10.70;;;20.40;72.40;;;;;;5064282;28;20379;-62
2022/08/27 04:19:11;;;;;;;20.58;12.20;;;20.40;72.40;;;;;;5044374;28;20046;-61
2022/08/27 04:21:38;;;;;;;18.98;10.82;;;20.40;72.30;;;;;;5063404;28;20118;-60
2022/08/27 04:24:04;;;;;;;17.15;11.50;;;20.40;72.40;;;;;;5034770;28;20656;-60
2022/08/27 04:26:30;;;;;;;21.27;11.65;;;20.40;72.40;;;;;;5048093;28;20033;-63
2022/08/27 04:28:57;;;;;;;18.15;11.43;;;20.30;72.50;;;;;;5055526;28;20029;-61
2022/08/27 04:31:24;;;;;;;18.88;11.77;;;20.30;72.80;;;;;;5060811;28;20021;-61
2022/08/27 04:33:52;;;;;;;20.52;12.05;;;20.30;72.90;;;;;;5040639;28;20056;-60
2022/08/27 04:36:18;;;;;;;22.58;13.70;;;20.30;73.10;;;;;;5063945;28;20027;-61
2022/08/27 04:38:44;;;;;;;21.23;13.68;;;20.30;73.20;;;;;;5051467;28;20060;-61
2022/08/27 04:41:20;;;;;;;21.90;13.27;;;20.20;73.20;;;;;;5043034;28;20037;-61
2022/08/27 04:43:52;;;;;;;20.92;12.73;;;20.20;73.30;;;;;;5052002;28;20053;-60
2022/08/27 04:46:27;;;;;;;20.48;14.13;;;20.30;73.70;;;;;;5060722;28;20032;-62
2022/08/27 04:48:59;;;;;;;22.48;13.18;;;20.30;73.80;;;;;;5055460;28;20047;-62
2022/08/27 04:51:25;;;;;;;19.63;13.15;;;20.30;73.60;;;;;;5043616;28;20038;-62
2022/08/27 04:53:51;;;;;;;19.90;11.35;;;20.30;73.50;;;;;;5054114;28;20112;-60
2022/08/27 04:56:21;;;;;;;16.33;10.23;;;20.30;73.50;;;;;;5046771;28;20091;-62
2022/08/27 04:58:47;;;;;;;19.15;11.13;;;20.30;73.40;;;;;;5052484;28;20025;-60
2022/08/27 05:01:22;;;;;;;16.92;11.80;;;20.40;73.40;;;;;;5046859;28;20111;-62
2022/08/27 05:03:48;;;;;;;16.33;10.85;;;20.40;74.00;;;;;;5061052;28;20048;-61
2022/08/27 05:06:14;;;;;;;16.77;11.23;;;20.40;73.70;;;;;;5045032;28;20029;-61
2022/08/27 05:08:40;;;;;;;18.50;11.65;;;20.40;73.60;;;;;;5051569;28;20075;-60
2022/08/27 05:11:12;;;;;;;18.38;12.18;;;20.40;73.60;;;;;;5025667;28;20437;-62
2022/08/27 05:13:38;;;;;;;24.80;13.07;;;20.50;73.80;;;;;;5058178;28;20473;-61
2022/08/27 05:16:08;;;;;;;22.60;12.93;;;20.50;73.70;;;;;;5047422;28;20033;-62
2022/08/27 05:18:35;;;;;;;18.80;12.85;;;20.50;74.00;;;;;;5059317;28;20060;-62
2022/08/27 05:21:01;;;;;;;19.13;12.32;;;20.50;73.90;;;;;;5047063;28;20155;-62
2022/08/27 05:23:27;;;;;;;23.88;12.85;;;20.60;74.00;;;;;;5058104;28;20032;-63
2022/08/27 05:25:53;;;;;;;24.02;12.85;;;20.60;74.00;;;;;;5051003;28;20033;-61
2022/08/27 05:28:20;;;;;;;19.13;12.77;;;20.70;74.70;;;;;;5065280;28;20032;-64
2022/08/27 05:30:48;;;;;;;22.33;12.68;;;20.70;74.00;;;;;;5052788;28;20361;-63
2022/08/27 05:33:17;;;;;;;20.80;12.57;;;20.80;73.90;;;;;;5062235;28;20089;-63
2022/08/27 05:35:45;;;;;;;19.42;12.57;;;20.80;73.90;;;;;;5052347;28;20029;-63
2022/08/27 05:38:11;;;;;;;19.77;11.77;;;20.90;73.80;;;;;;5063996;28;20036;-62
2022/08/27 05:40:37;;;;;;;20.33;13.13;;;20.90;73.60;;;;;;5054152;28;20033;-61
2022/08/27 05:43:05;;;;;;;19.15;12.35;;;20.90;73.50;;;;;;5061347;28;20025;-61
2022/08/27 05:45:31;;;;;;;17.52;12.38;;;21.00;73.40;;;;;;5055117;28;20026;-62
2022/08/27 05:47:57;;;;;;;17.85;11.57;;;21.00;73.20;;;;;;5035271;28;20033;-61
2022/08/27 05:50:31;;;;;;;18.50;12.50;;;21.00;73.20;;;;;;5046195;28;20405;-58
2022/08/27 05:52:57;;;;;;;19.42;12.77;;;21.00;73.30;;;;;;5061380;28;20140;-62
2022/08/27 05:55:23;;;;;;;18.98;13.20;;;21.10;73.10;;;;;;5047893;28;20033;-62
2022/08/27 05:57:49;;;;;;;22.17;13.05;;;21.10;73.30;;;;;;5055977;28;20029;-62
2022/08/27 06:02:58;;;;;;;22.15;13.60;;;21.20;73.40;;;;;;5058069;28;20075;-61
2022/08/27 06:05:24;;;;;;;20.83;13.48;;;21.30;73.40;;;;;;5047466;28;20093;-62
2022/08/27 06:07:50;;;;;;;18.38;13.27;;;21.30;73.40;;;;;;5056381;28;20055;-62
2022/08/27 06:10:15;;;;;;;19.70;13.57;;;21.40;73.40;;;;;;5047365;28;20044;-61
2022/08/27 06:12:41;;;;;;;18.35;12.82;;;21.40;73.10;;;;;;5053500;28;20032;-61
2022/08/27 06:15:07;;;;;;;19.02;12.68;;;21.50;73.10;;;;;;5045709;28;20524;-61
2022/08/27 06:17:33;;;;;;;17.65;13.13;;;21.50;73.00;;;;;;5050388;28;20383;-62
2022/08/27 06:19:58;;;;;;;18.67;13.40;;;21.60;73.00;;;;;;5033252;28;20117;-62
2022/08/27 06:22:24;;;;;;;18.02;13.15;;;21.60;72.90;;;;;;5044607;28;20018;-61
2022/08/27 06:24:50;;;;;;;17.73;12.80;;;21.70;72.60;;;;;;5045363;28;20112;-63
2022/08/27 06:27:17;;;;;;;18.33;13.00;;;21.70;72.50;;;;;;5048723;28;20029;-62
2022/08/27 06:29:44;;;;;;;20.95;13.90;;;21.80;72.30;;;;;;5044848;28;20025;-61
2022/08/27 06:32:11;;;;;;;18.83;14.10;;;21.80;72.30;;;;;;5048429;28;20593;-61
2022/08/27 06:34:38;;;;;;;21.13;14.90;;;21.80;72.30;;;;;;5063853;28;20092;-60
2022/08/27 06:37:03;;;;;;;23.13;15.30;;;21.90;72.20;;;;;;5049442;28;20033;-61
2022/08/27 06:39:30;;;;;;;21.02;14.57;;;21.90;72.20;;;;;;5047450;28;20032;-62
2022/08/27 06:41:56;;;;;;;18.63;13.20;;;21.90;72.30;;;;;;5046868;28;20427;-61
2022/08/27 06:44:23;;;;;;;24.80;15.85;;;22.00;72.30;;;;;;5043837;28;20079;-62
2022/08/27 06:46:49;;;;;;;26.05;15.18;;;22.00;72.20;;;;;;5059652;28;20034;-61
2022/08/27 06:49:15;;;;;;;22.30;14.40;;;22.00;72.00;;;;;;5056452;28;20108;-62
2022/08/27 06:51:44;;;;;;;23.23;14.77;;;22.00;71.90;;;;;;4992851;28;20530;-62
2022/08/27 06:54:11;;;;;;;20.58;14.82;;;22.10;72.70;;;;;;5043927;28;20025;-60
2022/08/27 06:56:37;;;;;;;22.05;14.43;;;22.10;72.30;;;;;;5047683;28;20032;-61
2022/08/27 06:59:06;;;;;;;25.55;15.48;;;22.20;72.20;;;;;;5053907;28;20032;-62
2022/08/27 07:01:35;;;;;;;25.55;14.40;;;22.20;72.00;;;;;;5040790;28;20061;-60
2022/08/27 07:04:03;;;;;;;20.98;13.65;;;22.30;71.80;;;;;;5048036;28;20060;-61
2022/08/27 07:06:31;;;;;;;22.92;14.02;;;22.30;71.80;;;;;;5044997;28;20034;-61
2022/08/27 07:08:57;;;;;;;21.25;13.25;;;22.30;71.80;;;;;;5048510;28;20028;-61
2022/08/27 07:11:23;;;;;;;15.00;10.30;;;22.30;72.00;;;;;;5039474;28;20029;-62
2022/08/27 07:13:50;;;;;;;16.48;10.55;;;22.40;72.00;;;;;;5040056;28;20037;-61
2022/08/27 07:16:18;;;;;;;18.73;11.80;;;22.40;71.90;;;;;;5045749;28;20032;-61
2022/08/27 07:18:44;;;;;;;15.75;10.80;;;22.50;71.60;;;;;;5050755;28;20060;-61
2022/08/27 07:21:10;;;;;;;15.05;10.18;;;22.60;71.60;;;;;;5042853;28;20515;-60
2022/08/27 07:23:37;;;;;;;16.50;10.80;;;22.60;71.50;;;;;;5050557;28;20105;-62
2022/08/27 07:26:09;;;;;;;19.65;11.73;;;22.70;71.40;;;;;;5038081;28;20045;-62
2022/08/27 07:28:36;;;;;;;15.95;11.15;;;22.70;71.30;;;;;;5051861;28;20032;-60
2022/08/27 07:31:04;;;;;;;18.02;10.85;;;22.80;71.00;;;;;;5047526;28;20057;-61
2022/08/27 07:33:30;;;;;;;14.48;10.57;;;22.80;70.50;;;;;;5034721;28;20050;-61
2022/08/27 07:35:55;;;;;;;13.90;10.60;;;22.80;70.40;;;;;;5042426;28;20036;-61
2022/08/27 07:38:21;;;;;;;13.45;9.93;;;22.80;70.10;;;;;;5046794;28;20029;-61
2022/08/27 07:40:47;;;;;;;13.50;9.20;;;22.80;70.10;;;;;;5044569;28;20048;-61
2022/08/27 07:46:00;;;;;;;12.18;8.23;;;22.80;70.10;;;;;;5046983;28;20044;-62
2022/08/27 07:48:26;;;;;;;14.70;8.23;;;22.80;70.20;;;;;;5062395;28;20036;-61
2022/08/27 07:50:53;;;;;;;13.60;8.15;;;22.80;70.20;;;;;;4961947;28;20067;-61
2022/08/27 07:53:19;;;;;;;9.95;7.53;;;22.90;70.40;;;;;;5049286;28;20026;-62
2022/08/27 07:55:46;;;;;;;12.35;8.18;;;22.90;70.10;;;;;;5044761;28;20125;-63
2022/08/27 07:58:12;;;;;;;12.32;8.38;;;23.00;69.80;;;;;;5063381;28;20446;-61
2022/08/27 08:00:41;;;;;;;15.65;8.20;;;23.00;69.80;;;;;;5050845;28;20053;-61
2022/08/27 08:03:07;;;;;;;11.38;7.80;;;23.00;69.50;;;;;;5063665;28;20073;-63
2022/08/27 08:05:33;;;;;;;15.77;8.40;;;23.00;69.40;;;;;;5034049;28;20029;-62
2022/08/27 08:07:59;;;;;;;12.00;8.05;;;23.00;69.60;;;;;;5061789;28;20068;-61
2022/08/27 08:10:24;;;;;;;11.30;7.80;;;23.10;69.60;;;;;;5044638;28;20029;-61
2022/08/27 08:12:50;;;;;;;13.98;8.27;;;23.10;69.50;;;;;;5046239;28;20034;-61
2022/08/27 08:15:17;;;;;;;14.52;9.00;;;23.10;69.30;;;;;;5047440;28;20539;-61
2022/08/27 08:17:43;;;;;;;11.38;8.38;;;23.20;68.60;;;;;;5064731;28;20036;-61
2022/08/27 08:20:10;;;;;;;15.57;8.98;;;23.20;68.50;;;;;;5032469;28;20107;-61
2022/08/27 08:22:37;;;;;;;12.20;8.60;;;23.20;68.70;;;;;;5036831;28;20026;-61
2022/08/27 08:25:04;;;;;;;16.40;9.32;;;23.20;69.60;;;;;;5043396;28;20079;-62
2022/08/27 08:27:31;;;;;;;14.60;9.57;;;23.20;68.60;;;;;;5047975;28;20029;-61
2022/08/27 08:30:00;;;;;;;14.63;10.38;;;23.30;68.20;;;;;;5057395;28;20047;-61
2022/08/27 08:32:26;;;;;;;15.27;10.38;;;23.30;67.90;;;;;;5054613;28;20029;-61
2022/08/27 08:34:52;;;;;;;14.68;9.88;;;23.30;67.90;;;;;;5049003;28;20035;-61
2022/08/27 08:37:18;;;;;;;14.65;9.80;;;23.20;67.70;;;;;;5042826;28;20037;-61
2022/08/27 08:39:44;;;;;;;17.90;11.43;;;23.30;68.10;;;;;;5043675;28;20048;-61
2022/08/27 08:42:55;;;;;;;19.05;11.70;;;23.30;68.20;;;;;;5050200;28;20093;-61
2022/08/27 08:45:26;;;;;;;13.13;9.55;;;23.30;68.30;;;;;;5045064;28;20045;-62
2022/08/27 08:48:05;;;;;;;16.33;11.13;;;23.30;68.10;;;;;;5049708;28;20116;-61
2022/08/27 08:50:42;;;;;;;21.85;12.23;;;23.30;68.20;;;;;;5050145;28;20136;-61
2022/08/27 08:53:34;;;;;;;22.30;12.13;;;23.40;68.10;;;;;;5047554;28;20034;-63
2022/08/27 08:56:04;;;;;;;18.60;11.57;;;23.40;68.00;;;;;;5041723;28;20021;-63
2022/08/27 08:58:48;;;;;;;18.60;11.98;;;23.40;67.90;;;;;;5038140;28;20021;-61
2022/08/27 09:01:19;;;;;;;19.13;11.25;;;23.40;68.20;;;;;;5033208;28;20060;-61
2022/08/27 09:04:11;;;;;;;17.33;11.65;;;23.50;68.00;;;;;;5047265;28;20349;-62
2022/08/27 09:06:49;;;;;;;19.02;12.25;;;23.50;67.60;;;;;;5057695;28;20037;-61
2022/08/27 09:09:45;;;;;;;22.27;11.77;;;23.50;67.70;;;;;;5039120;28;20029;-62
2022/08/27 09:12:23;;;;;;;17.02;11.73;;;23.60;67.70;;;;;;5039120;28;20043;-64
2022/08/27 09:14:58;;;;;;;19.15;12.02;;;23.60;67.70;;;;;;5043738;28;20056;-64
2022/08/27 09:17:24;;;;;;;19.92;12.43;;;23.70;67.40;;;;;;5056243;28;20028;-62
2022/08/27 09:19:50;;;;;;;22.23;12.65;;;23.70;67.50;;;;;;5060300;28;20053;-63
2022/08/27 09:22:27;;;;;;;16.85;11.25;;;23.80;67.40;;;;;;5058766;28;20034;-61
2022/08/27 09:25:05;;;;;;;14.25;10.15;;;23.90;66.40;;;;;;5048319;28;20048;-61
2022/08/27 09:27:32;;;;;;;12.82;9.38;;;24.00;67.30;;;;;;5033882;28;20025;-61
2022/08/27 09:30:03;;;;;;;13.93;10.00;;;24.10;66.60;;;;;;5054116;28;20035;-62
2022/08/27 09:32:32;;;;;;;14.07;10.07;;;24.30;66.10;;;;;;5050421;28;20036;-62
2022/08/27 09:35:01;;;;;;;18.38;10.93;;;24.30;65.50;;;;;;5057257;28;20029;-60
2022/08/27 09:37:38;;;;;;;16.73;11.10;;;24.40;65.20;;;;;;5050527;28;20041;-63
2022/08/27 09:40:13;;;;;;;16.48;11.43;;;24.50;65.10;;;;;;5034293;28;20186;-61
2022/08/27 09:42:45;;;;;;;17.08;11.50;;;24.50;65.00;;;;;;5050721;28;20029;-62
2022/08/27 09:45:23;;;;;;;15.68;11.15;;;24.50;64.90;;;;;;5047528;28;20033;-60
2022/08/27 09:48:01;;;;;;;17.05;11.68;;;24.50;65.00;;;;;;5044897;28;20025;-62
2022/08/27 09:50:34;;;;;;;18.00;11.50;;;24.50;64.90;;;;;;4948353;28;20063;-62
2022/08/27 09:53:00;;;;;;;18.38;11.48;;;24.50;64.50;;;;;;5043191;28;20030;-62
2022/08/27 09:55:28;;;;;;;16.70;11.55;;;24.50;64.60;;;;;;5053259;28;20036;-61
2022/08/27 09:57:54;;;;;;;20.63;11.75;;;24.50;64.50;;;;;;5075994;28;20020;-61
2022/08/27 10:00:39;;;;;;;20.42;13.00;;;24.50;64.60;;;;;;5033882;28;20037;-62
2022/08/27 10:03:06;;;;;;;21.35;12.93;;;24.50;64.80;;;;;;5060783;28;20040;-62
2022/08/27 10:05:49;;;;;;;19.33;13.52;;;24.60;64.80;;;;;;5047771;28;20088;-61
2022/08/27 10:08:23;;;;;;;20.40;11.93;;;24.60;64.40;;;;;;5051390;28;20021;-62
2022/08/27 10:11:13;;;;;;;16.98;12.32;;;24.70;64.20;;;;;;5041066;28;20084;-62
2022/08/27 10:13:54;;;;;;;20.65;12.88;;;24.70;63.80;;;;;;5032807;28;20025;-62
2022/08/27 10:16:20;;;;;;;21.50;13.55;;;24.70;63.10;;;;;;5036520;28;20040;-61
2022/08/27 10:19:17;;;;;;;19.90;12.23;;;24.70;63.80;;;;;;5048355;28;20060;-62
2022/08/27 10:22:06;;;;;;;19.80;12.38;;;24.70;63.50;;;;;;5049190;28;20595;-61
2022/08/27 10:24:40;;;;;;;17.27;11.80;;;24.70;63.30;;;;;;5057932;28;20092;-61
2022/08/27 10:27:40;;;;;;;18.05;12.57;;;24.80;63.90;;;;;;5047810;28;20038;-62
2022/08/27 10:30:38;;;;;;;7.53;5.50;;;24.80;63.30;;;;;;5058214;28;20036;-62
2022/08/27 10:33:34;;;;;;;4.07;3.67;;;24.70;60.60;;;;;;5034377;28;20400;-62
2022/08/27 10:36:25;;;;;;;3.17;2.40;;;24.70;60.10;;;;;;5048678;28;20535;-60
2022/08/27 10:39:10;;;;;;;2.03;1.65;;;24.60;59.30;;;;;;5050250;28;20083;-61
2022/08/27 10:41:48;;;;;;;4.28;1.70;;;24.40;58.60;;;;;;5061573;28;20069;-62
2022/08/27 10:44:52;;;;;;;3.25;1.50;;;24.20;58.90;;;;;;5035887;28;20036;-61
2022/08/27 10:47:27;;;;;;;6.78;2.20;;;23.90;58.70;;;;;;5047488;28;20041;-61
2022/08/27 10:49:52;;;;;;;5.50;2.63;;;23.80;59.70;;;;;;5042008;28;20037;-61
2022/08/27 10:52:37;;;;;;;4.70;2.10;;;23.60;60.80;;;;;;4975312;28;20044;-61
2022/08/27 10:55:22;;;;;;;5.10;2.53;;;23.50;62.00;;;;;;5050014;28;20025;-61
2022/08/27 10:58:13;;;;;;;2.05;1.80;;;23.40;63.20;;;;;;5044004;28;20025;-62
2022/08/27 11:01:04;;;;;;;2.17;1.90;;;23.30;63.70;;;;;;5043074;28;20071;-61
2022/08/27 11:03:47;;;;;;;2.72;2.25;;;23.20;64.00;;;;;;5030393;28;20079;-61
2022/08/27 11:06:36;;;;;;;3.47;2.55;;;23.20;64.90;;;;;;5037632;28;20065;-61
2022/08/27 11:09:12;;;;;;;2.92;2.53;;;23.10;65.60;;;;;;5029448;28;20018;-61
2022/08/27 11:11:57;;;;;;;3.67;2.60;;;23.10;65.90;;;;;;5041764;28;20041;-62
2022/08/27 11:14:42;;;;;;;4.38;2.70;;;23.00;66.60;;;;;;5073457;28;20029;-60
2022/08/27 11:17:17;;;;;;;3.20;2.38;;;23.00;67.00;;;;;;5034590;28;20030;-61
2022/08/27 11:20:17;;;;;;;3.15;2.47;;;23.00;66.80;;;;;;5040372;28;20050;-62
2022/08/27 11:23:04;;;;;;;2.95;2.65;;;23.00;67.50;;;;;;5037052;28;20034;-62
2022/08/27 11:25:33;;;;;;;4.55;2.45;;;23.00;67.60;;;;;;5033445;28;20026;-61
2022/08/27 11:28:01;;;;;;;2.88;2.58;;;23.00;67.50;;;;;;5035277;28;20026;-61
2022/08/27 11:30:57;;;;;;;2.95;2.58;;;23.00;67.50;;;;;;5044633;28;20017;-61
2022/08/27 11:33:50;;;;;;;3.28;2.53;;;22.90;67.70;;;;;;5044825;28;20124;-61
2022/08/27 11:36:16;;;;;;;4.00;2.70;;;22.90;67.90;;;;;;5046603;28;20049;-62
2022/08/27 11:38:57;;;;;;;3.72;2.85;;;22.80;67.40;;;;;;5048782;28;20553;-61
2022/08/27 11:41:56;;;;;;;6.45;2.05;;;22.80;67.40;;;;;;5053149;28;20055;-61
2022/08/27 11:44:25;;;;;;;2.47;2.25;;;22.80;66.50;;;;;;5044211;28;20064;-60
2022/08/27 11:46:56;;;;;;;3.35;2.15;;;22.80;66.40;;;;;;5080812;28;20096;-61
2022/08/27 11:50:00;;;;;;;3.33;2.30;;;22.70;66.30;;;;;;5041648;28;20029;-64
2022/08/27 11:52:28;;;;;;;3.05;2.47;;;22.60;65.90;;;;;;4967552;28;20026;-61
2022/08/27 11:55:19;;;;;;;6.35;2.85;;;22.50;65.90;;;;;;5038163;28;20022;-62
2022/08/27 11:57:47;;;;;;;2.28;2.05;;;22.40;65.90;;;;;;5052060;28;20076;-61
2022/08/27 12:00:25;;;;;;;2.65;2.00;;;22.30;65.70;;;;;;5050328;28;20737;-61
2022/08/27 12:03:01;;;;;;;3.40;2.30;;;22.20;66.30;;;;;;5035835;28;20029;-62
2022/08/27 12:05:44;;;;;;;2.20;2.00;;;22.10;66.80;;;;;;5057167;28;20036;-62
2022/08/27 12:08:20;;;;;;;3.30;1.98;;;22.00;66.90;;;;;;5061513;28;20052;-63
2022/08/27 12:10:55;;;;;;;2.72;2.13;;;21.90;67.00;;;;;;5049890;28;20051;-61
2022/08/27 12:13:21;;;;;;;3.42;1.88;;;21.80;67.30;;;;;;5054954;28;20084;-61
2022/08/27 12:15:55;;;;;;;2.47;2.00;;;21.80;67.50;;;;;;5045640;28;20056;-62
2022/08/27 12:18:40;;;;;;;3.38;1.98;;;21.70;67.60;;;;;;5035021;28;20073;-61
2022/08/27 12:21:15;;;;;;;2.58;2.20;;;21.70;67.80;;;;;;5043604;28;20060;-62
2022/08/27 12:23:48;;;;;;;2.83;2.30;;;21.70;67.80;;;;;;5024286;28;20045;-61
2022/08/27 12:26:33;;;;;;;3.03;2.40;;;21.70;68.10;;;;;;5037058;28;20040;-62
2022/08/27 12:29:30;;;;;;;3.00;2.35;;;21.70;68.30;;;;;;5044865;28;20037;-60
2022/08/27 12:32:11;;;;;;;2.28;2.08;;;21.70;69.20;;;;;;5048384;28;20029;-61
2022/08/27 12:34:45;;;;;;;3.45;2.38;;;21.70;69.00;;;;;;5033997;28;20105;-62
2022/08/27 12:37:20;;;;;;;3.15;2.05;;;21.80;68.90;;;;;;5042221;28;20024;-62
2022/08/27 12:39:48;;;;;;;3.95;2.58;;;21.80;68.60;;;;;;5040085;28;20092;-60
2022/08/27 12:42:18;;;;;;;3.05;2.25;;;21.80;68.40;;;;;;5047262;28;20033;-62
2022/08/27 12:44:44;;;;;;;3.10;2.08;;;21.80;68.80;;;;;;5049631;28;20021;-60
2022/08/27 12:47:12;;;;;;;2.38;1.85;;;21.80;68.90;;;;;;5048419;28;20449;-62
2022/08/27 12:49:46;;;;;;;4.25;2.25;;;21.90;69.20;;;;;;5050496;28;20403;-61
2022/08/27 12:52:27;;;;;;;2.28;1.98;;;21.90;69.30;;;;;;5046727;28;20029;-61
2022/08/27 12:55:35;;;;;;;3.38;1.83;;;21.90;69.30;;;;;;5036752;28;20037;-62
2022/08/27 12:58:17;;;;;;;5.35;2.20;;;22.00;69.90;;;;;;5049766;28;20038;-60
2022/08/27 13:01:20;;;;;;;2.03;1.88;;;22.00;69.80;;;;;;5039058;28;20073;-61
2022/08/27 13:03:53;;;;;;;3.05;2.05;;;22.10;69.80;;;;;;5048150;28;20042;-60
2022/08/27 13:06:20;;;;;;;5.57;2.10;;;22.20;70.20;;;;;;5032007;28;20053;-62